createdAt,value
2024-02-10T00:05:00.004Z,98340.07
2024-02-10T00:20:02.735Z,98334.44
2024-02-10T00:35:06.930Z,98334.16
2024-02-10T00:50:09.851Z,98331.44
2024-02-10T01:05:14.976Z,98332.75
2024-02-10T01:20:18.146Z,98327.77
2024-02-10T01:35:21.232Z,98326.98
2024-02-10T01:50:23.926Z,98328.56
2024-02-10T02:05:28.262Z,98327.45
2024-02-10T02:20:32.899Z,98338.25
2024-02-10T02:35:39.083Z,98345.30
2024-02-10T02:50:45.006Z,98341.44
2024-02-10T03:05:47.510Z,98348.05
2024-02-10T03:20:50.297Z,98349.38
2024-02-10T03:35:54.628Z,98350.95
2024-02-10T03:50:57.182Z,98351.45
2024-02-10T04:05:59.652Z,98360.66
2024-02-10T04:21:04.645Z,98367.34
2024-02-10T04:36:07.960Z,98362.17
2024-02-10T04:51:10.521Z,98361.58
2024-02-10T05:06:14.085Z,98351.66
2024-02-10T05:21:21.006Z,98348.79
2024-02-10T05:36:23.513Z,98352.09
2024-02-10T05:51:26.193Z,98346.64
2024-02-10T06:06:28.730Z,98344.83
2024-02-10T08:22:41.977Z,98400.45
2024-02-10T08:37:44.571Z,98413.61
2024-02-10T09:00:28.680Z,98462.04
2024-02-10T09:15:31.165Z,98463.13
2024-02-10T09:30:36.208Z,98460.42
2024-02-10T09:45:42.638Z,98445.77
2024-02-10T10:00:45.455Z,98457.06
2024-02-10T10:15:48.064Z,98456.23
2024-02-10T10:30:53.640Z,98458.44
2024-02-10T10:45:58.001Z,98454.57
2024-02-10T11:01:03.952Z,98466.33
2024-02-10T11:16:13.524Z,98467.31
2024-02-10T11:31:18.214Z,98477.49
2024-02-10T11:46:21.160Z,98491.08
2024-02-10T12:01:25.007Z,98492.70
2024-02-10T12:16:34.493Z,98487.79
2024-02-10T12:31:41.908Z,98469.51
2024-02-10T12:46:46.623Z,98450.56
2024-02-10T13:01:49.647Z,98443.04
2024-02-10T13:16:52.340Z,98446.48
2024-02-10T13:31:57.051Z,98441.70
2024-02-10T13:47:19.728Z,98433.08
2024-02-10T14:02:41.038Z,98431.16
2024-02-10T14:17:50.239Z,98433.73
2024-02-10T14:32:57.031Z,98436.70
2024-02-10T14:48:06.405Z,98432.20
2024-02-10T15:03:15.113Z,98442.14
2024-02-10T15:18:19.364Z,98449.38
2024-02-10T15:33:22.669Z,98462.73
2024-02-10T15:48:29.804Z,98466.19
2024-02-10T16:03:34.631Z,98463.73
2024-02-10T16:18:40.505Z,98481.58
2024-02-10T16:33:43.130Z,98490.73
2024-02-10T16:48:49.654Z,98503.72
2024-02-10T17:03:54.246Z,98523.77
2024-02-10T17:19:00.203Z,98530.54
2024-02-10T17:34:03.547Z,98535.70
2024-02-10T17:49:10.354Z,98531.48
2024-02-10T18:04:15.203Z,98527.84
2024-02-10T18:19:17.731Z,98526.36
2024-02-10T18:34:21.253Z,98521.68
2024-02-10T18:49:32.280Z,98523.34
2024-02-10T19:04:36.671Z,98524.65
2024-02-10T19:19:40.340Z,98535.38
2024-02-10T19:34:45.625Z,98539.76
2024-02-10T19:49:49.425Z,98549.07
2024-02-10T20:04:52.423Z,98555.71
2024-02-10T20:20:06.254Z,98550.44
2024-02-10T20:35:10.317Z,98531.61
2024-02-10T20:50:14.283Z,98522.55
2024-02-10T21:05:18.137Z,98515.59
2024-02-10T21:20:20.852Z,98510.63
2024-02-10T21:35:23.344Z,98503.23
2024-02-10T21:50:28.294Z,98491.95
2024-02-10T22:05:31.661Z,98487.12
2024-02-10T22:20:34.165Z,98479.36
2024-02-10T22:35:37.831Z,98488.52
2024-02-10T22:50:44.001Z,98480.30
2024-02-10T23:05:46.716Z,98467.39
2024-02-10T23:20:51.782Z,98459.17
2024-02-10T23:35:56.591Z,98453.77
2024-02-10T23:51:01.093Z,98444.94
